createdAt,value
2023-04-23T00:00:03.748Z,18.12
2023-04-23T00:01:03.763Z,18.19
2023-04-23T00:02:03.805Z,18.25
2023-04-23T00:03:04.011Z,18.25
2023-04-23T00:04:04.014Z,18.19
2023-04-23T00:05:03.907Z,18.19
2023-04-23T00:06:03.912Z,18.12
2023-04-23T00:07:04.125Z,18.12
2023-04-23T00:08:04.064Z,18.06
2023-04-23T00:09:04.144Z,18.19
2023-04-23T00:10:04.328Z,18.19
2023-04-23T00:11:04.458Z,18.25
2023-04-23T00:12:04.471Z,18.19
2023-04-23T00:13:03.519Z,18.25
2023-04-23T00:14:03.506Z,18.25
2023-04-23T00:15:03.521Z,18.31
2023-04-23T00:16:03.628Z,18.38
2023-04-23T00:17:03.668Z,18.44
2023-04-23T00:18:03.663Z,18.50
2023-04-23T00:19:03.606Z,18.50
2023-04-23T00:20:03.592Z,18.31
2023-04-23T00:21:03.657Z,18.25
2023-04-23T00:22:03.680Z,18.12
2023-04-23T00:23:03.843Z,18.12
2023-04-23T00:24:03.750Z,18.12
2023-04-23T00:25:03.758Z,18.12
2023-04-23T00:26:03.837Z,18.25
2023-04-23T00:27:03.993Z,18.12
2023-04-23T00:28:04.011Z,18.06
2023-04-23T00:29:04.013Z,17.94
2023-04-23T00:30:04.075Z,18.00
2023-04-23T00:31:04.085Z,18.19
2023-04-23T00:32:04.182Z,18.25
2023-04-23T00:33:04.187Z,18.25
2023-04-23T00:34:04.149Z,18.19
2023-04-23T00:35:04.258Z,18.19
2023-04-23T00:36:04.145Z,18.06
2023-04-23T00:37:04.148Z,18.00
2023-04-23T00:38:04.169Z,17.94
2023-04-23T00:39:04.154Z,17.88
2023-04-23T00:40:04.231Z,17.88
2023-04-23T00:41:04.320Z,17.94
2023-04-23T00:42:04.475Z,18.00
2023-04-23T00:43:04.383Z,17.94
2023-04-23T00:44:04.390Z,17.88
2023-04-23T00:45:04.468Z,17.81
2023-04-23T00:46:04.442Z,18.00
2023-04-23T00:47:03.557Z,18.00
2023-04-23T00:48:03.687Z,17.94
2023-04-23T00:49:03.852Z,18.00
2023-04-23T00:50:03.922Z,17.81
2023-04-23T00:51:03.921Z,17.75
2023-04-23T00:52:03.820Z,17.56
2023-04-23T00:53:03.823Z,17.44
2023-04-23T00:54:03.918Z,17.44
2023-04-23T00:55:03.897Z,17.44
2023-04-23T00:56:04.076Z,17.62
2023-04-23T00:57:04.077Z,17.62
2023-04-23T00:58:04.081Z,17.56
2023-04-23T00:59:04.083Z,17.56
2023-04-23T01:00:04.144Z,17.75
2023-04-23T01:01:04.106Z,17.75
2023-04-23T01:02:04.354Z,17.69
2023-04-23T01:03:04.502Z,17.62
2023-04-23T01:04:04.629Z,17.81
2023-04-23T01:05:04.392Z,17.75
2023-04-23T01:06:03.516Z,17.62
2023-04-23T01:07:03.594Z,17.56
2023-04-23T01:08:03.599Z,17.56
2023-04-23T01:09:03.772Z,17.62
2023-04-23T01:10:03.749Z,17.50
2023-04-23T01:11:03.757Z,17.50
2023-04-23T01:12:03.689Z,17.56
2023-04-23T01:13:03.744Z,17.62
2023-04-23T01:14:03.756Z,17.62
2023-04-23T01:15:03.689Z,17.62
2023-04-23T01:16:03.765Z,17.69
2023-04-23T01:17:03.818Z,17.75
2023-04-23T01:18:03.734Z,17.88
2023-04-23T01:19:03.755Z,17.69
2023-04-23T01:20:03.847Z,17.56
2023-04-23T01:21:03.907Z,17.62
2023-04-23T01:22:04.157Z,17.62
2023-04-23T01:23:04.177Z,17.75
2023-04-23T01:24:04.070Z,17.75
2023-04-23T01:25:04.159Z,17.69
2023-04-23T01:26:04.317Z,17.56
2023-04-23T01:27:04.381Z,17.50
2023-04-23T01:28:03.592Z,17.50
2023-04-23T01:29:03.502Z,17.56
2023-04-23T01:30:03.516Z,17.56
2023-04-23T01:31:03.700Z,17.50
2023-04-23T01:32:03.666Z,17.50
2023-04-23T01:33:03.847Z,17.56
2023-04-23T01:34:03.917Z,17.56
2023-04-23T01:35:03.918Z,17.62
2023-04-23T01:36:03.995Z,17.75
2023-04-23T01:37:04.075Z,17.69
2023-04-23T01:38:04.175Z,17.75
2023-04-23T01:39:04.226Z,17.69
2023-04-23T01:40:04.306Z,17.69
2023-04-23T01:41:04.232Z,17.69
2023-04-23T01:42:04.311Z,17.69
2023-04-23T01:43:04.339Z,17.75
2023-04-23T01:44:04.305Z,17.94
2023-04-23T01:45:04.238Z,17.88
2023-04-23T01:46:04.238Z,17.75
2023-04-23T01:47:06.411Z,17.75
2023-04-23T01:48:03.742Z,17.75
2023-04-23T01:49:03.684Z,17.81
2023-04-23T01:50:03.694Z,17.75
2023-04-23T01:51:03.759Z,17.75
2023-04-23T01:52:03.741Z,17.75
2023-04-23T01:53:03.792Z,17.62
2023-04-23T01:54:03.998Z,17.62
2023-04-23T01:55:04.005Z,17.62
2023-04-23T01:56:03.998Z,17.62
2023-04-23T01:57:03.993Z,17.62
2023-04-23T01:58:03.994Z,17.75
2023-04-23T01:59:03.984Z,17.62
2023-04-23T02:00:04.163Z,17.69
2023-04-23T02:01:04.150Z,17.62
2023-04-23T02:02:04.200Z,17.56
2023-04-23T02:03:04.386Z,17.50
2023-04-23T02:04:04.317Z,17.44
2023-04-23T02:05:04.143Z,17.56
2023-04-23T02:06:04.314Z,17.56
2023-04-23T02:07:04.395Z,17.56
2023-04-23T02:08:04.329Z,17.56
2023-04-23T02:09:04.315Z,17.62
2023-04-23T02:10:04.470Z,17.69
2023-04-23T02:11:04.471Z,17.69
2023-04-23T02:12:04.464Z,17.62
2023-04-23T02:13:04.483Z,17.69
2023-04-23T02:14:04.464Z,17.62
2023-04-23T02:15:03.827Z,17.56
2023-04-23T02:16:03.888Z,17.56
2023-04-23T02:17:03.822Z,17.56
2023-04-23T02:18:03.911Z,17.56
2023-04-23T02:19:03.990Z,17.69
2023-04-23T02:20:04.082Z,17.62
2023-04-23T02:21:04.470Z,17.56
2023-04-23T02:22:04.469Z,17.50
2023-04-23T02:23:03.631Z,17.56
2023-04-23T02:24:03.673Z,17.50
2023-04-23T02:25:03.905Z,17.50
2023-04-23T02:26:03.986Z,17.44
2023-04-23T02:27:04.072Z,17.50
2023-04-23T02:28:03.542Z,17.56
2023-04-23T02:29:03.602Z,17.69
2023-04-23T02:30:03.671Z,17.75
2023-04-23T02:31:03.689Z,17.81
2023-04-23T02:32:03.754Z,17.75
2023-04-23T02:33:03.766Z,17.81
2023-04-23T02:34:03.843Z,17.75
2023-04-23T02:35:03.916Z,17.81
2023-04-23T02:36:03.995Z,17.81
2023-04-23T02:37:04.159Z,17.81
2023-04-23T02:38:04.071Z,17.94
2023-04-23T02:39:04.085Z,18.00
2023-04-23T02:40:04.155Z,17.94
2023-04-23T02:41:04.230Z,17.75
2023-04-23T02:42:04.317Z,17.69
2023-04-23T02:43:04.402Z,17.69
2023-04-23T02:44:04.398Z,17.62
2023-04-23T02:45:04.384Z,17.69
2023-04-23T02:46:04.481Z,17.62
2023-04-23T02:47:04.506Z,17.69
2023-04-23T02:48:04.433Z,17.69
2023-04-23T02:49:03.595Z,17.69
2023-04-23T02:50:03.595Z,17.75
2023-04-23T02:51:03.602Z,17.69
2023-04-23T02:52:03.602Z,17.75
2023-04-23T02:53:03.597Z,17.75
2023-04-23T02:54:03.623Z,17.62
2023-04-23T02:55:03.517Z,17.56
2023-04-23T02:56:03.600Z,17.50
2023-04-23T02:57:03.513Z,17.44
2023-04-23T02:58:03.589Z,17.44
2023-04-23T02:59:03.745Z,17.38
2023-04-23T03:00:03.504Z,17.38
2023-04-23T03:01:03.755Z,17.38
2023-04-23T03:02:03.778Z,17.44
2023-04-23T03:03:03.922Z,17.44
2023-04-23T03:04:03.939Z,17.50
2023-04-23T03:05:03.826Z,17.50
2023-04-23T03:06:03.827Z,17.44
2023-04-23T03:07:03.824Z,17.50
2023-04-23T03:08:03.983Z,17.50
2023-04-23T03:09:04.073Z,17.44
2023-04-23T03:10:04.165Z,17.44
2023-04-23T03:11:04.238Z,17.44
2023-04-23T03:12:04.193Z,17.38
2023-04-23T03:13:04.146Z,17.44
2023-04-23T03:14:04.321Z,17.38
2023-04-23T03:15:04.306Z,17.38
2023-04-23T03:16:04.393Z,17.38
2023-04-23T03:17:04.408Z,17.38
2023-04-23T03:18:04.494Z,17.31
2023-04-23T03:19:04.382Z,17.19
2023-04-23T03:20:03.770Z,17.19
2023-04-23T03:21:03.678Z,17.19
2023-04-23T03:22:03.703Z,17.19
2023-04-23T03:23:03.760Z,17.31
2023-04-23T03:24:03.838Z,17.31
2023-04-23T03:25:04.078Z,17.25
2023-04-23T03:26:04.072Z,17.25
2023-04-23T03:27:04.071Z,17.31
2023-04-23T03:28:04.235Z,17.31
2023-04-23T03:29:04.244Z,17.38
2023-04-23T03:30:04.088Z,17.38
2023-04-23T03:31:04.293Z,17.31
2023-04-23T03:32:04.279Z,17.31
2023-04-23T03:33:04.218Z,17.31
2023-04-23T03:34:04.165Z,17.38
2023-04-23T03:35:04.274Z,17.38
2023-04-23T03:36:04.394Z,17.38
2023-04-23T03:37:04.315Z,17.38
2023-04-23T03:38:04.388Z,17.31
2023-04-23T03:39:03.512Z,17.31
2023-04-23T03:40:03.591Z,17.31
2023-04-23T03:41:03.584Z,17.44
2023-04-23T03:42:03.584Z,17.38
2023-04-23T03:43:03.517Z,17.31
2023-04-23T03:44:03.666Z,17.31
2023-04-23T03:45:03.592Z,17.31
2023-04-23T03:46:03.708Z,17.44
2023-04-23T03:47:03.760Z,17.56
2023-04-23T03:48:03.744Z,17.62
2023-04-23T03:49:03.832Z,17.50
2023-04-23T03:50:03.829Z,17.44
2023-04-23T03:51:03.917Z,17.38
2023-04-23T03:52:03.818Z,17.44
2023-04-23T03:53:03.834Z,17.50
2023-04-23T03:54:04.000Z,17.44
2023-04-23T03:55:04.002Z,17.44
2023-04-23T03:56:04.070Z,17.50
2023-04-23T03:57:04.168Z,17.50
2023-04-23T03:58:04.146Z,17.50
2023-04-23T03:59:04.157Z,17.62
2023-04-23T04:00:04.237Z,17.62
2023-04-23T04:01:04.145Z,17.69
2023-04-23T04:02:04.362Z,17.75
2023-04-23T04:03:05.317Z,17.62
2023-04-23T04:04:04.495Z,17.62
2023-04-23T04:05:04.541Z,17.69
2023-04-23T04:06:04.313Z,17.75
2023-04-23T04:07:04.333Z,17.81
2023-04-23T04:08:04.472Z,17.81
2023-04-23T04:09:03.504Z,17.81
2023-04-23T04:10:03.601Z,17.81
2023-04-23T04:11:03.591Z,17.88
2023-04-23T04:12:03.607Z,17.88
2023-04-23T04:13:03.673Z,17.75
2023-04-23T04:14:03.760Z,17.75
2023-04-23T04:15:03.746Z,17.69
2023-04-23T04:16:03.844Z,17.56
2023-04-23T04:17:03.989Z,17.50
2023-04-23T04:18:03.998Z,17.44
2023-04-23T04:19:04.086Z,17.44
2023-04-23T04:20:04.088Z,17.38
2023-04-23T04:21:04.113Z,17.38
2023-04-23T04:22:04.079Z,17.31
2023-04-23T04:23:04.193Z,17.25
2023-04-23T04:24:04.240Z,17.19
2023-04-23T04:25:04.499Z,17.12
2023-04-23T04:26:04.475Z,17.12
2023-04-23T04:27:03.676Z,17.06
2023-04-23T04:28:03.754Z,17.06
2023-04-23T04:29:03.746Z,17.06
2023-04-23T04:30:03.772Z,17.00
2023-04-23T04:31:03.866Z,17.00
2023-04-23T04:32:04.250Z,16.88
2023-04-23T04:33:04.155Z,16.94
2023-04-23T04:34:04.225Z,16.94
2023-04-23T04:35:04.319Z,17.00
2023-04-23T04:36:04.329Z,17.00
2023-04-23T04:37:04.072Z,17.00
2023-04-23T04:38:04.072Z,16.94
2023-04-23T04:39:04.062Z,16.62
2023-04-23T04:40:04.318Z,16.56
2023-04-23T04:41:04.326Z,16.69
2023-04-23T04:42:04.407Z,16.75
2023-04-23T04:43:04.314Z,16.81
2023-04-23T04:44:04.385Z,17.00
2023-04-23T04:45:03.517Z,16.94
2023-04-23T04:46:05.298Z,17.00
2023-04-23T04:47:03.739Z,16.88
2023-04-23T04:48:03.666Z,16.81
2023-04-23T04:49:04.163Z,16.81
2023-04-23T04:50:04.154Z,16.88
2023-04-23T04:51:04.148Z,17.00
2023-04-23T04:52:04.231Z,17.12
2023-04-23T04:53:04.227Z,17.25
2023-04-23T04:54:04.328Z,17.38
2023-04-23T04:55:04.497Z,17.56
2023-04-23T04:56:04.509Z,17.69
2023-04-23T04:57:03.513Z,17.62
2023-04-23T04:58:03.501Z,17.56
2023-04-23T04:59:03.600Z,17.38
2023-04-23T05:00:03.590Z,17.31
2023-04-23T05:01:03.687Z,17.31
2023-04-23T05:02:03.740Z,17.31
2023-04-23T05:03:03.831Z,17.31
2023-04-23T05:04:03.814Z,17.31
2023-04-23T05:05:03.661Z,17.56
2023-04-23T05:06:03.788Z,17.69
2023-04-23T05:07:03.838Z,17.69
2023-04-23T05:08:03.745Z,17.75
2023-04-23T05:09:03.757Z,17.62
2023-04-23T05:10:03.750Z,17.44
2023-04-23T05:11:03.904Z,17.31
2023-04-23T05:12:03.924Z,17.38
2023-04-23T05:13:03.831Z,17.19
2023-04-23T05:14:03.824Z,17.00
2023-04-23T05:15:03.846Z,17.31
2023-04-23T05:16:03.825Z,17.38
2023-04-23T05:17:03.993Z,17.25
2023-04-23T05:18:04.076Z,17.12
2023-04-23T05:19:04.151Z,17.06
2023-04-23T05:20:04.140Z,17.06
2023-04-23T05:21:04.153Z,17.06
2023-04-23T05:22:04.232Z,17.00
2023-04-23T05:23:04.255Z,17.06
2023-04-23T05:24:04.313Z,17.12
2023-04-23T05:25:04.322Z,17.38
2023-04-23T05:26:04.238Z,17.56
2023-04-23T05:27:04.404Z,17.56
2023-04-23T05:28:04.485Z,17.56
2023-04-23T05:29:04.403Z,17.38
2023-04-23T05:30:04.398Z,17.25
2023-04-23T05:31:04.324Z,17.19
2023-04-23T05:32:04.433Z,17.25
2023-04-23T05:33:04.495Z,17.25
2023-04-23T05:34:04.463Z,17.25
2023-04-23T05:35:03.501Z,17.12
2023-04-23T05:36:03.596Z,17.12
2023-04-23T05:37:04.459Z,17.06
2023-04-23T05:38:03.510Z,17.06
2023-04-23T05:39:03.502Z,17.06
2023-04-23T05:40:03.508Z,17.19
2023-04-23T05:41:03.740Z,17.38
2023-04-23T05:42:03.657Z,17.44
2023-04-23T05:43:03.687Z,17.44
2023-04-23T05:44:03.678Z,17.38
2023-04-23T05:45:03.760Z,17.44
2023-04-23T05:46:03.696Z,17.25
2023-04-23T05:47:03.825Z,17.25
2023-04-23T05:48:03.956Z,17.25
2023-04-23T05:49:04.136Z,17.25
2023-04-23T05:50:04.068Z,17.19
2023-04-23T05:51:04.148Z,17.38
2023-04-23T05:52:04.143Z,17.50
2023-04-23T05:53:04.149Z,17.56
2023-04-23T05:54:04.059Z,17.56
2023-04-23T05:55:04.144Z,17.50
2023-04-23T05:56:04.147Z,17.38
2023-04-23T05:57:04.154Z,17.25
2023-04-23T05:58:04.220Z,17.19
2023-04-23T05:59:04.301Z,17.25
2023-04-23T06:00:04.425Z,17.25
2023-04-23T06:01:04.478Z,17.38
2023-04-23T06:02:04.493Z,17.56
2023-04-23T06:03:04.353Z,17.69
2023-04-23T06:04:04.703Z,17.69
2023-04-23T06:05:04.569Z,17.69
2023-04-23T06:06:04.425Z,17.69
2023-04-23T06:07:03.578Z,17.56
2023-04-23T06:08:03.586Z,17.56
2023-04-23T06:09:03.731Z,18.00
2023-04-23T06:10:03.745Z,18.12
2023-04-23T06:11:03.748Z,18.44
2023-04-23T06:12:03.825Z,18.38
2023-04-23T06:13:03.761Z,18.12
2023-04-23T06:14:03.893Z,18.00
2023-04-23T06:15:03.898Z,17.81
2023-04-23T06:16:03.950Z,17.75
2023-04-23T06:17:03.988Z,17.88
2023-04-23T06:18:03.941Z,18.06
2023-04-23T06:19:03.821Z,17.94
2023-04-23T06:20:03.814Z,17.81
2023-04-23T06:21:03.824Z,17.75
2023-04-23T06:22:03.819Z,17.94
2023-04-23T06:23:04.262Z,18.19
2023-04-23T06:24:03.984Z,18.38
2023-04-23T06:25:04.081Z,18.25
2023-04-23T06:26:03.907Z,18.12
2023-04-23T06:27:03.901Z,18.00
2023-04-23T06:28:04.368Z,18.00
2023-04-23T06:29:04.360Z,18.00
2023-04-23T06:30:04.472Z,17.94
2023-04-23T06:31:04.483Z,17.94
2023-04-23T06:32:04.385Z,18.06
2023-04-23T06:33:04.540Z,17.94
2023-04-23T06:34:04.223Z,17.94
2023-04-23T06:35:04.536Z,18.12
2023-04-23T06:36:04.301Z,18.19
2023-04-23T06:37:04.374Z,18.12
2023-04-23T06:38:04.305Z,18.19
2023-04-23T06:39:04.294Z,18.12
2023-04-23T06:40:04.312Z,18.12
2023-04-23T06:41:04.294Z,18.19
2023-04-23T06:42:04.376Z,18.19
2023-04-23T06:43:04.461Z,18.19
2023-04-23T06:44:04.447Z,18.19
2023-04-23T06:45:05.493Z,18.12
2023-04-23T06:46:03.666Z,18.12
2023-04-23T06:47:03.667Z,18.12
2023-04-23T06:48:03.553Z,18.12
2023-04-23T06:49:03.597Z,18.12
2023-04-23T06:50:03.584Z,18.12
2023-04-23T06:51:03.571Z,18.06
2023-04-23T06:52:03.985Z,18.00
2023-04-23T06:53:04.932Z,18.12
2023-04-23T06:54:03.968Z,18.31
2023-04-23T06:55:04.052Z,18.50
2023-04-23T06:56:04.219Z,18.69
2023-04-23T06:57:04.371Z,18.75
2023-04-23T06:58:04.422Z,18.69
2023-04-23T06:59:04.291Z,18.50
2023-04-23T07:00:04.374Z,18.38
2023-04-23T07:01:05.362Z,18.38
2023-04-23T07:02:04.410Z,18.38
2023-04-23T07:03:03.568Z,18.44
2023-04-23T07:04:03.513Z,18.44
2023-04-23T07:05:03.668Z,18.38
2023-04-23T07:06:04.050Z,18.31
2023-04-23T07:07:04.057Z,18.25
2023-04-23T07:08:04.226Z,18.19
2023-04-23T07:09:04.164Z,18.12
2023-04-23T07:10:04.075Z,18.19
2023-04-23T07:11:04.155Z,18.19
2023-04-23T07:12:04.146Z,18.12
2023-04-23T07:13:04.227Z,18.12
2023-04-23T07:14:04.169Z,18.06
2023-04-23T07:15:04.325Z,18.00
2023-04-23T07:16:04.400Z,18.00
2023-04-23T07:17:04.570Z,17.94
2023-04-23T07:18:04.488Z,17.94
2023-04-23T07:19:04.386Z,17.81
2023-04-23T07:20:04.312Z,17.81
2023-04-23T07:21:04.387Z,17.75
2023-04-23T07:22:03.526Z,17.75
2023-04-23T07:23:04.661Z,17.69
2023-04-23T07:24:04.433Z,17.62
2023-04-23T07:25:03.521Z,17.56
2023-04-23T07:26:03.701Z,17.56
2023-04-23T07:27:03.683Z,17.69
2023-04-23T07:28:03.753Z,17.62
2023-04-23T07:29:03.684Z,17.44
2023-04-23T07:30:03.611Z,17.31
2023-04-23T07:31:03.518Z,17.25
2023-04-23T07:32:03.681Z,17.12
2023-04-23T07:33:03.734Z,17.00
2023-04-23T07:34:03.920Z,17.00
2023-04-23T07:35:03.844Z,17.12
2023-04-23T07:36:03.761Z,16.94
2023-04-23T07:37:03.706Z,16.94
2023-04-23T07:38:03.666Z,16.81
2023-04-23T07:39:03.669Z,16.69
2023-04-23T07:40:03.703Z,16.69
2023-04-23T07:41:03.762Z,16.69
2023-04-23T07:42:04.246Z,16.88
2023-04-23T07:43:04.323Z,16.88
2023-04-23T07:44:04.407Z,16.81
2023-04-23T07:45:04.492Z,16.81
2023-04-23T07:46:04.473Z,16.88
2023-04-23T07:47:04.400Z,16.94
2023-04-23T07:48:03.531Z,16.94
2023-04-23T07:49:03.595Z,16.88
2023-04-23T07:50:03.596Z,16.69
2023-04-23T07:51:03.981Z,16.56
2023-04-23T07:52:03.991Z,16.62
2023-04-23T07:53:04.972Z,16.62
2023-04-23T07:54:04.088Z,16.56
2023-04-23T07:55:04.252Z,16.62
2023-04-23T07:56:04.155Z,16.50
2023-04-23T07:57:04.410Z,16.50
2023-04-23T07:58:04.409Z,16.44
2023-04-23T07:59:03.676Z,16.44
2023-04-23T08:00:04.412Z,16.38
2023-04-23T08:01:04.395Z,16.56
2023-04-23T08:02:04.447Z,16.56
2023-04-23T08:03:04.595Z,16.56
2023-04-23T08:04:04.581Z,16.56
2023-04-23T08:05:04.386Z,16.56
2023-04-23T08:06:04.416Z,16.50
2023-04-23T08:07:04.410Z,16.50
2023-04-23T08:08:04.671Z,16.31
2023-04-23T08:09:04.405Z,16.31
2023-04-23T08:10:04.483Z,16.31
2023-04-23T08:11:03.580Z,16.44
2023-04-23T08:12:03.674Z,16.31
2023-04-23T08:13:03.664Z,16.56
2023-04-23T08:14:03.831Z,16.50
2023-04-23T08:15:03.826Z,16.56
2023-04-23T08:16:03.834Z,16.88
2023-04-23T08:17:03.991Z,16.75
2023-04-23T08:18:04.096Z,16.62
2023-04-23T08:19:05.824Z,16.75
2023-04-23T08:20:03.988Z,16.62
2023-04-23T08:21:03.987Z,16.75
2023-04-23T08:22:03.987Z,16.75
2023-04-23T08:23:04.001Z,16.88
2023-04-23T08:24:03.907Z,16.81
2023-04-23T08:25:03.910Z,16.81
2023-04-23T08:26:03.988Z,16.81
2023-04-23T08:27:03.991Z,16.75
2023-04-23T08:28:03.935Z,16.62
2023-04-23T08:29:03.992Z,16.56
2023-04-23T08:30:03.940Z,16.75
2023-04-23T08:31:09.510Z,16.69
2023-04-23T08:32:04.148Z,16.62
2023-04-23T08:33:04.044Z,16.62
2023-04-23T08:34:04.073Z,16.62
2023-04-23T08:35:04.060Z,16.75
2023-04-23T08:36:03.979Z,16.69
2023-04-23T08:37:04.069Z,16.81
2023-04-23T08:38:04.065Z,16.81
2023-04-23T08:39:04.157Z,16.75
2023-04-23T08:40:03.995Z,16.62
2023-04-23T08:41:04.249Z,16.56
2023-04-23T08:42:04.246Z,16.75
2023-04-23T08:43:03.603Z,16.81
2023-04-23T08:44:04.005Z,16.88
2023-04-23T08:45:04.081Z,16.94
2023-04-23T08:46:04.072Z,17.00
2023-04-23T08:47:04.060Z,17.00
2023-04-23T08:48:04.015Z,17.06
2023-04-23T08:49:04.097Z,17.00
2023-04-23T08:50:04.151Z,17.06
2023-04-23T08:51:04.225Z,17.06
2023-04-23T08:52:04.166Z,17.19
2023-04-23T08:53:04.145Z,17.19
2023-04-23T08:54:04.230Z,17.25
2023-04-23T08:55:04.147Z,17.31
2023-04-23T08:56:04.343Z,17.50
2023-04-23T08:57:04.238Z,17.62
2023-04-23T08:58:04.242Z,17.69
2023-04-23T08:59:04.235Z,17.75
2023-04-23T09:00:04.310Z,17.81
2023-04-23T09:01:04.447Z,17.81
2023-04-23T09:02:03.529Z,17.81
2023-04-23T09:03:03.728Z,17.88
2023-04-23T09:04:03.786Z,18.06
2023-04-23T09:05:03.679Z,18.19
2023-04-23T09:06:03.720Z,18.38
2023-04-23T09:07:03.751Z,18.44
2023-04-23T09:08:03.825Z,18.44
2023-04-23T09:09:03.927Z,18.62
2023-04-23T09:10:03.920Z,18.69
2023-04-23T09:11:03.842Z,18.75
2023-04-23T09:12:03.988Z,18.75
2023-04-23T09:13:04.083Z,18.75
2023-04-23T09:14:04.076Z,18.75
2023-04-23T09:15:04.107Z,18.88
2023-04-23T09:16:03.926Z,18.94
2023-04-23T09:17:04.007Z,19.00
2023-04-23T09:18:03.947Z,19.00
2023-04-23T09:19:04.001Z,19.06
2023-04-23T09:20:04.092Z,19.00
2023-04-23T09:21:03.914Z,19.06
2023-04-23T09:22:04.083Z,19.06
2023-04-23T09:23:04.007Z,19.06
2023-04-23T09:24:04.166Z,19.12
2023-04-23T09:25:04.162Z,19.12
2023-04-23T09:26:04.080Z,19.19
2023-04-23T09:27:04.235Z,19.19
2023-04-23T09:28:04.158Z,19.19
2023-04-23T09:29:04.232Z,19.31
2023-04-23T09:30:04.156Z,19.44
2023-04-23T09:31:04.402Z,19.38
2023-04-23T09:32:04.580Z,19.50
2023-04-23T09:33:03.636Z,19.56
2023-04-23T09:34:03.608Z,19.56
2023-04-23T09:35:03.776Z,19.62
2023-04-23T09:36:03.681Z,19.69
2023-04-23T09:37:03.764Z,19.69
2023-04-23T09:38:03.917Z,19.69
2023-04-23T09:39:03.905Z,19.75
2023-04-23T09:40:04.076Z,19.75
2023-04-23T09:41:04.072Z,19.75
2023-04-23T09:42:04.078Z,19.75
2023-04-23T09:43:03.992Z,19.75
2023-04-23T09:44:04.080Z,19.75
2023-04-23T09:45:04.133Z,19.69
2023-04-23T09:46:04.197Z,19.75
2023-04-23T09:47:04.230Z,19.81
2023-04-23T09:48:04.324Z,19.81
2023-04-23T09:49:04.319Z,19.88
2023-04-23T09:50:04.236Z,19.94
2023-04-23T09:51:04.482Z,20.12
2023-04-23T09:52:04.408Z,20.19
2023-04-23T09:53:03.508Z,20.25
2023-04-23T09:54:03.760Z,20.25
2023-04-23T09:55:03.965Z,20.25
2023-04-23T09:56:03.849Z,20.31
2023-04-23T09:57:03.925Z,20.31
2023-04-23T09:58:04.089Z,20.31
2023-04-23T09:59:04.071Z,20.31
2023-04-23T10:00:14.112Z,20.50
2023-04-23T10:01:04.190Z,20.50
2023-04-23T10:02:04.229Z,20.50
2023-04-23T10:03:04.285Z,20.62
2023-04-23T10:04:04.523Z,20.56
2023-04-23T10:05:21.596Z,20.62
2023-04-23T10:06:04.486Z,20.62
2023-04-23T10:07:17.771Z,20.69
2023-04-23T10:08:04.325Z,20.75
2023-04-23T10:09:04.317Z,20.81
2023-04-23T10:10:04.478Z,20.81
2023-04-23T10:11:19.804Z,20.75
2023-04-23T10:12:03.674Z,20.88
2023-04-23T10:13:03.579Z,20.94
2023-04-23T10:14:03.757Z,21.06
2023-04-23T10:15:03.767Z,21.12
2023-04-23T10:16:14.409Z,21.06
2023-04-23T10:17:03.975Z,21.19
2023-04-23T10:18:03.860Z,21.31
2023-04-23T10:19:03.996Z,21.50
2023-04-23T10:20:03.990Z,21.56
2023-04-23T10:21:04.066Z,21.56
2023-04-23T10:22:18.313Z,21.44
2023-04-23T10:23:04.149Z,21.44
2023-04-23T10:24:04.066Z,21.38
2023-04-23T10:25:04.114Z,21.31
2023-04-23T10:26:04.221Z,21.19
2023-04-23T10:27:04.242Z,21.25
2023-04-23T10:28:04.333Z,21.19
2023-04-23T10:29:04.309Z,21.19
2023-04-23T10:30:05.572Z,21.19
2023-04-23T10:31:04.357Z,21.25
2023-04-23T10:32:04.479Z,21.25
2023-04-23T10:33:06.038Z,21.38
2023-04-23T10:34:04.443Z,21.38
2023-04-23T10:35:03.519Z,21.44
2023-04-23T10:36:03.600Z,21.44
2023-04-23T10:37:03.678Z,21.44
2023-04-23T10:38:03.752Z,21.44
2023-04-23T10:39:03.765Z,21.50
2023-04-23T10:40:03.709Z,21.50
2023-04-23T10:41:03.676Z,21.56
2023-04-23T10:42:03.826Z,21.69
2023-04-23T10:43:03.910Z,21.75
2023-04-23T10:44:03.762Z,21.69
2023-04-23T10:45:10.249Z,21.69
2023-04-23T10:46:03.880Z,21.69
2023-04-23T10:47:03.858Z,21.81
2023-04-23T10:48:03.940Z,21.94
2023-04-23T10:49:03.910Z,22.00
2023-04-23T10:50:03.978Z,22.00
2023-04-23T10:51:19.237Z,22.06
2023-04-23T10:52:17.565Z,22.12
2023-04-23T10:53:03.604Z,22.31
2023-04-23T10:54:03.587Z,22.38
2023-04-23T10:55:04.490Z,22.44
2023-04-23T10:56:03.843Z,22.31
2023-04-23T10:57:03.753Z,22.50
2023-04-23T10:58:03.822Z,22.38
2023-04-23T10:59:03.585Z,22.31
2023-04-23T11:00:03.598Z,22.38
2023-04-23T11:01:03.698Z,22.38
2023-04-23T11:02:03.702Z,22.31
2023-04-23T11:03:03.812Z,22.31
2023-04-23T11:04:03.884Z,22.25
2023-04-23T11:05:03.845Z,22.12
2023-04-23T11:06:03.711Z,22.00
2023-04-23T11:07:03.747Z,22.00
2023-04-23T11:08:14.989Z,21.94
2023-04-23T11:09:03.833Z,22.06
2023-04-23T11:10:03.820Z,22.06
2023-04-23T11:11:03.824Z,22.00
2023-04-23T11:12:03.994Z,22.06
2023-04-23T11:13:03.994Z,22.06
2023-04-23T11:14:04.000Z,22.12
2023-04-23T11:15:03.987Z,22.38
2023-04-23T11:16:04.080Z,22.50
2023-04-23T11:17:04.224Z,22.44
2023-04-23T11:18:04.294Z,22.50
2023-04-23T11:19:04.266Z,22.44
2023-04-23T11:20:04.304Z,22.31
2023-04-23T11:21:04.401Z,22.25
2023-04-23T11:22:04.330Z,22.25
2023-04-23T11:23:04.389Z,22.25
2023-04-23T11:24:04.386Z,22.25
2023-04-23T11:25:03.512Z,22.25
2023-04-23T11:26:04.547Z,22.19
2023-04-23T11:27:03.454Z,22.25
2023-04-23T11:28:03.517Z,22.31
2023-04-23T11:29:03.597Z,22.62
2023-04-23T11:30:03.687Z,22.62
2023-04-23T11:31:03.586Z,22.75
2023-04-23T11:32:04.181Z,22.62
2023-04-23T11:33:03.730Z,22.69
2023-04-23T11:34:03.675Z,22.75
2023-04-23T11:35:03.839Z,22.81
2023-04-23T11:36:03.765Z,22.88
2023-04-23T11:37:03.857Z,22.94
2023-04-23T11:38:03.891Z,22.94
2023-04-23T11:39:03.834Z,23.00
2023-04-23T11:40:03.836Z,23.00
2023-04-23T11:41:03.838Z,23.06
2023-04-23T11:42:03.840Z,23.00
2023-04-23T11:43:03.668Z,23.12
2023-04-23T11:44:03.588Z,23.06
2023-04-23T11:45:03.585Z,23.06
2023-04-23T11:46:03.758Z,23.00
2023-04-23T11:47:03.770Z,22.94
2023-04-23T11:48:03.680Z,22.94
2023-04-23T11:49:03.684Z,22.94
2023-04-23T11:50:03.692Z,22.94
2023-04-23T11:51:03.585Z,22.81
2023-04-23T11:52:03.598Z,22.75
2023-04-23T11:53:03.588Z,22.81
2023-04-23T11:54:03.592Z,22.81
2023-04-23T11:55:03.673Z,22.88
2023-04-23T11:56:03.766Z,22.88
2023-04-23T11:57:03.752Z,22.81
2023-04-23T11:58:03.665Z,22.75
2023-04-23T11:59:03.862Z,22.81
2023-04-23T12:00:03.840Z,23.06
2023-04-23T12:01:04.226Z,23.19
2023-04-23T12:02:04.449Z,23.12
2023-04-23T12:03:03.693Z,23.12
2023-04-23T12:04:03.766Z,23.12
2023-04-23T12:05:03.718Z,23.06
2023-04-23T12:06:03.750Z,23.06
2023-04-23T12:07:10.110Z,23.00
2023-04-23T12:08:03.836Z,22.94
2023-04-23T12:09:03.825Z,23.12
2023-04-23T12:10:03.829Z,23.19
2023-04-23T12:11:03.928Z,23.25
2023-04-23T12:12:03.833Z,23.19
2023-04-23T12:13:03.748Z,23.31
2023-04-23T12:14:03.913Z,23.31
2023-04-23T12:15:03.906Z,23.25
2023-04-23T12:16:03.976Z,23.25
2023-04-23T12:17:04.071Z,23.19
2023-04-23T12:18:04.155Z,23.31
2023-04-23T12:19:04.153Z,23.31
2023-04-23T12:20:04.077Z,23.31
2023-04-23T12:21:03.985Z,23.25
2023-04-23T12:22:04.158Z,23.25
2023-04-23T12:23:04.236Z,23.19
2023-04-23T12:24:04.402Z,23.12
2023-04-23T12:25:04.428Z,23.12
2023-04-23T12:26:04.007Z,23.19
2023-04-23T12:27:04.446Z,23.25
2023-04-23T12:28:04.409Z,23.44
2023-04-23T12:29:04.462Z,23.62
2023-04-23T12:30:05.697Z,23.62
2023-04-23T12:31:03.629Z,23.69
2023-04-23T12:32:03.679Z,23.81
2023-04-23T12:33:03.870Z,23.81
2023-04-23T12:34:03.766Z,23.88
2023-04-23T12:35:03.833Z,23.94
2023-04-23T12:36:03.830Z,24.00
2023-04-23T12:37:03.928Z,24.06
2023-04-23T12:38:03.925Z,24.06
2023-04-23T12:39:03.994Z,24.06
2023-04-23T12:40:04.061Z,23.94
2023-04-23T12:41:04.232Z,23.75
2023-04-23T12:42:04.402Z,23.75
2023-04-23T12:43:04.315Z,23.75
2023-04-23T12:44:04.307Z,23.69
2023-04-23T12:45:04.314Z,23.75
2023-04-23T12:46:04.309Z,23.69
2023-04-23T12:47:04.404Z,23.69
2023-04-23T12:48:04.498Z,23.69
2023-04-23T12:49:04.472Z,23.62
2023-04-23T12:50:04.484Z,23.69
2023-04-23T12:51:04.383Z,23.88
2023-04-23T12:52:04.399Z,23.88